Cleveland, North Carolina
Current Conditions -  °F | °C
As of 9:35 AM on Wednesday 22 Oct 2014 (Local Time) from KRUQ Reporting Station
Clear Clear  
Wind Chill: 52°   Ceiling: Unl
Heat Index: 52°   Visibility: 10mi
Dew Point: 38°   Wind: 14mph
Humidity: 59%   Direction: 330°NNW
Pressure: 30.07"   Gusts: 18mph
Location:  35.73°N, 80.68°W
Report Text: KRUQ 221335Z AUTO 33012G16KT 10SM CLR 11/03 A3007 RMK AO2 T01100033
Loading
Personal Weather Stations






























Interactive Weather Map New forecast layout! Learn more

10-Day Weather Forecast

Advertisements
Track Severe Weather on mobile